Time;durP1;ratioP1;P1;durP2;ratioP2;P2;SDS_P1;SDS_P2;PMS_P1;PMS_P2;Temp;Humidity;BMP_temperature;BMP_pressure;BME280_temperature;BME280_humidity;BME280_pressure;Samples;Min_cycle;Max_cycle;Signal;HPM_P1;HPM_P2
2023/04/20 00:01:09;;;;;;;2.42;1.10;;;8.50;99.90;;;;;;4977634;28;20051;-75
2023/04/20 00:03:36;;;;;;;2.20;1.13;;;8.50;99.90;;;;;;4976977;28;20055;-75
2023/04/20 00:06:03;;;;;;;3.00;1.20;;;8.50;99.90;;;;;;4977546;28;20055;-76
2023/04/20 00:08:28;;;;;;;2.88;1.13;;;8.50;99.90;;;;;;4975647;28;20477;-76
2023/04/20 00:10:54;;;;;;;4.05;1.27;;;8.60;99.90;;;;;;4976605;28;20062;-75
2023/04/20 00:13:20;;;;;;;1.38;0.88;;;8.60;99.90;;;;;;4977308;28;20050;-75
2023/04/20 00:15:46;;;;;;;2.22;0.93;;;8.60;99.90;;;;;;4975734;28;20050;-75
2023/04/20 00:18:11;;;;;;;3.30;1.17;;;8.60;99.90;;;;;;4976599;28;20374;-75
2023/04/20 00:20:37;;;;;;;2.70;1.00;;;8.70;99.90;;;;;;4987071;28;20386;-75
2023/04/20 00:23:03;;;;;;;1.83;1.00;;;8.60;99.90;;;;;;4962779;28;20046;-76
2023/04/20 00:25:30;;;;;;;2.55;1.10;;;8.70;99.90;;;;;;4978613;28;20042;-75
2023/04/20 00:27:56;;;;;;;5.50;1.30;;;8.70;99.90;;;;;;4996000;28;20403;-75
2023/04/20 00:30:22;;;;;;;2.70;1.10;;;8.80;99.90;;;;;;4996422;28;20056;-75
2023/04/20 00:32:47;;;;;;;3.53;1.10;;;8.80;99.90;;;;;;4995813;28;20050;-75
2023/04/20 00:35:13;;;;;;;3.08;1.10;;;8.80;99.90;;;;;;4995740;28;20050;-74
2023/04/20 00:37:39;;;;;;;1.83;1.00;;;8.80;99.90;;;;;;4995647;28;20046;-75
2023/04/20 00:40:08;;;;;;;3.38;0.88;;;8.80;99.90;;;;;;4995725;28;20050;-75
2023/04/20 00:42:34;;;;;;;2.75;0.90;;;8.80;99.90;;;;;;4996214;28;20394;-75
2023/04/20 00:44:59;;;;;;;4.50;1.45;;;8.80;99.90;;;;;;4995602;28;20051;-74
2023/04/20 00:47:25;;;;;;;2.67;1.10;;;9.00;99.90;;;;;;4995545;28;20181;-74
2023/04/20 00:49:51;;;;;;;2.65;1.10;;;8.80;99.90;;;;;;4978261;28;20034;-74
2023/04/20 00:52:18;;;;;;;2.63;0.90;;;8.80;99.90;;;;;;4995786;28;20075;-74
2023/04/20 00:54:44;;;;;;;2.03;0.90;;;8.80;99.90;;;;;;4995486;28;20072;-75
2023/04/20 00:57:13;;;;;;;3.38;1.10;;;8.70;99.90;;;;;;4995794;28;20491;-75
2023/04/20 00:59:39;;;;;;;4.15;1.17;;;8.80;99.90;;;;;;4995350;28;20205;-76
2023/04/20 01:02:05;;;;;;;3.60;0.85;;;8.70;99.90;;;;;;4978810;28;20090;-74
2023/04/20 01:04:31;;;;;;;2.55;1.15;;;8.70;99.90;;;;;;4995232;28;20081;-76
2023/04/20 01:06:57;;;;;;;1.98;1.20;;;8.70;99.90;;;;;;4995151;28;20101;-74
2023/04/20 01:09:22;;;;;;;2.63;0.90;;;8.70;99.90;;;;;;4977468;28;20050;-75
2023/04/20 01:11:48;;;;;;;1.15;0.88;;;8.60;99.90;;;;;;4995089;28;20121;-75
2023/04/20 01:14:14;;;;;;;2.03;0.80;;;8.70;99.90;;;;;;4995561;28;20393;-74
2023/04/20 01:16:39;;;;;;;4.80;1.35;;;8.70;99.90;;;;;;4994996;28;20051;-75
2023/04/20 01:19:05;;;;;;;2.92;1.10;;;8.60;99.90;;;;;;4977619;28;20050;-75
2023/04/20 01:21:31;;;;;;;1.92;1.00;;;8.60;99.90;;;;;;4995446;28;20436;-75
2023/04/20 01:23:57;;;;;;;2.90;1.00;;;8.60;99.90;;;;;;4995071;28;20467;-77
2023/04/20 01:26:24;;;;;;;3.17;1.00;;;8.80;99.90;;;;;;4994502;28;20432;-75
2023/04/20 01:28:50;;;;;;;3.30;1.10;;;8.60;99.90;;;;;;4994767;28;20046;-77
2023/04/20 01:31:16;;;;;;;3.58;0.90;;;8.60;99.90;;;;;;4961519;28;20050;-75
2023/04/20 01:33:41;;;;;;;2.30;0.82;;;8.60;99.90;;;;;;4995296;28;20046;-74
2023/04/20 01:36:08;;;;;;;2.30;1.10;;;8.60;99.90;;;;;;4994568;28;20513;-75
2023/04/20 01:38:35;;;;;;;3.92;1.10;;;8.50;99.90;;;;;;4977108;28;20099;-75
2023/04/20 01:41:05;;;;;;;3.65;1.05;;;8.50;99.90;;;;;;4994545;28;20050;-75
2023/04/20 01:43:32;;;;;;;3.10;0.90;;;8.50;99.90;;;;;;4994502;28;20046;-74
2023/04/20 01:45:59;;;;;;;3.33;1.00;;;8.50;99.90;;;;;;4994496;28;20050;-75
2023/04/20 01:48:25;;;;;;;1.45;0.80;;;8.50;99.90;;;;;;4994527;28;20049;-75
2023/04/20 01:50:51;;;;;;;3.22;0.85;;;8.40;99.90;;;;;;4961463;28;20054;-75
2023/04/20 01:53:17;;;;;;;2.30;1.02;;;8.30;99.90;;;;;;4994455;28;20054;-75
2023/04/20 01:55:43;;;;;;;2.65;0.90;;;8.30;99.90;;;;;;4977586;28;20046;-76
2023/04/20 01:58:09;;;;;;;3.03;0.90;;;8.30;99.90;;;;;;4961250;28;20046;-75
2023/04/20 02:00:34;;;;;;;2.53;1.48;;;8.30;99.90;;;;;;4994248;28;20042;-75
2023/04/20 02:03:00;;;;;;;1.80;1.00;;;8.20;99.90;;;;;;4994749;28;20050;-75
2023/04/20 02:05:26;;;;;;;2.63;0.93;;;8.10;99.90;;;;;;4976942;28;20046;-75
2023/04/20 02:07:51;;;;;;;6.40;1.00;;;8.10;99.90;;;;;;4994983;28;20042;-75
2023/04/20 02:10:17;;;;;;;3.65;1.00;;;8.10;99.90;;;;;;4994151;28;20484;-76
2023/04/20 02:12:43;;;;;;;2.40;0.80;;;8.10;99.90;;;;;;4994216;28;20050;-76
2023/04/20 02:15:09;;;;;;;1.67;1.08;;;8.00;99.90;;;;;;4960996;28;20079;-75
2023/04/20 02:17:35;;;;;;;3.08;1.00;;;8.00;99.90;;;;;;4994298;28;20109;-75
2023/04/20 02:20:05;;;;;;;3.22;1.00;;;8.00;99.90;;;;;;4976227;28;20063;-75
2023/04/20 02:22:33;;;;;;;3.45;1.00;;;8.00;99.90;;;;;;4994563;28;20096;-76
2023/04/20 02:25:03;;;;;;;3.42;1.00;;;8.00;99.90;;;;;;4994587;28;20480;-76
2023/04/20 02:27:30;;;;;;;2.72;1.05;;;8.00;99.90;;;;;;4993749;28;20519;-75
2023/04/20 02:29:56;;;;;;;1.42;0.90;;;8.00;99.90;;;;;;4993921;28;20100;-79
2023/04/20 02:32:22;;;;;;;1.58;0.88;;;8.10;99.90;;;;;;4976690;28;20046;-80
2023/04/20 02:34:47;;;;;;;1.83;0.95;;;8.10;99.90;;;;;;4993836;28;20053;-75
2023/04/20 02:37:13;;;;;;;1.50;1.02;;;8.10;99.90;;;;;;4994440;28;20038;-75
2023/04/20 02:39:39;;;;;;;5.25;1.05;;;8.20;99.90;;;;;;4996743;28;20078;-75
2023/04/20 02:42:05;;;;;;;4.88;1.20;;;8.20;99.90;;;;;;4980614;28;20043;-76
2023/04/20 02:44:31;;;;;;;2.40;0.93;;;8.20;99.90;;;;;;4980864;28;20470;-76
2023/04/20 02:46:56;;;;;;;2.85;1.10;;;8.50;99.90;;;;;;4997743;28;20129;-76
2023/04/20 02:49:22;;;;;;;2.95;0.93;;;8.30;99.90;;;;;;4998362;28;20046;-77
2023/04/20 02:51:48;;;;;;;2.33;1.10;;;8.40;99.90;;;;;;4997853;28;20176;-75
2023/04/20 02:54:13;;;;;;;2.97;0.88;;;8.30;99.90;;;;;;4997511;28;20050;-78
2023/04/20 02:56:39;;;;;;;3.63;0.93;;;8.50;99.90;;;;;;4997626;28;20053;-75
2023/04/20 02:59:05;;;;;;;2.30;1.10;;;8.50;99.90;;;;;;4997499;28;20085;-75
2023/04/20 03:01:31;;;;;;;2.75;0.77;;;8.40;99.90;;;;;;4997567;28;20093;-77
2023/04/20 03:03:57;;;;;;;3.20;1.23;;;8.50;99.90;;;;;;4997431;28;20104;-80
2023/04/20 03:06:22;;;;;;;3.05;1.10;;;8.70;99.90;;;;;;4997275;28;20112;-75
2023/04/20 03:08:48;;;;;;;2.30;1.00;;;8.40;99.90;;;;;;4997274;28;20045;-75
2023/04/20 03:11:14;;;;;;;1.77;0.80;;;8.50;99.90;;;;;;4997379;28;20133;-76
2023/04/20 03:13:40;;;;;;;2.55;0.80;;;8.50;99.90;;;;;;4997367;28;20073;-75
2023/04/20 03:16:06;;;;;;;4.47;1.13;;;8.50;99.90;;;;;;4997250;28;20046;-75
2023/04/20 03:18:32;;;;;;;1.85;1.20;;;8.50;99.90;;;;;;4979818;28;20064;-76
2023/04/20 03:20:58;;;;;;;2.13;0.90;;;8.50;99.90;;;;;;4979656;28;20090;-75
2023/04/20 03:23:23;;;;;;;1.58;0.80;;;8.50;99.90;;;;;;4997197;28;20050;-75
2023/04/20 03:25:49;;;;;;;2.67;1.02;;;8.50;99.90;;;;;;4997891;28;20046;-75
2023/04/20 03:28:15;;;;;;;1.42;1.00;;;8.50;99.90;;;;;;4979649;28;20526;-75
2023/04/20 03:30:41;;;;;;;1.90;0.82;;;8.50;99.90;;;;;;4997478;28;20061;-75
2023/04/20 03:33:07;;;;;;;1.90;0.98;;;8.60;99.90;;;;;;4997176;28;20467;-75
2023/04/20 03:35:33;;;;;;;3.08;0.80;;;8.50;99.90;;;;;;4996840;28;20081;-77
2023/04/20 03:37:58;;;;;;;2.13;1.00;;;8.50;99.90;;;;;;4996710;28;20081;-75
2023/04/20 03:40:24;;;;;;;2.15;0.80;;;8.50;99.90;;;;;;4979687;28;20046;-75
2023/04/20 03:42:50;;;;;;;1.70;0.90;;;8.50;99.90;;;;;;4996854;28;20054;-82
2023/04/20 03:45:16;;;;;;;4.47;0.90;;;8.50;99.90;;;;;;4979585;28;20077;-75
2023/04/20 03:47:41;;;;;;;1.23;0.80;;;8.60;99.90;;;;;;4996754;28;20493;-75
2023/04/20 03:50:08;;;;;;;1.25;0.70;;;8.60;99.90;;;;;;4979249;28;20047;-75
2023/04/20 03:52:33;;;;;;;1.92;0.80;;;8.50;99.90;;;;;;4996707;28;20053;-74
2023/04/20 03:54:59;;;;;;;2.25;0.70;;;8.50;99.90;;;;;;4996645;28;20045;-74
2023/04/20 03:57:25;;;;;;;2.80;0.80;;;8.60;99.90;;;;;;4996502;28;20054;-74
2023/04/20 03:59:51;;;;;;;2.42;0.90;;;8.70;99.90;;;;;;4963314;28;20097;-75
2023/04/20 04:02:17;;;;;;;3.42;0.90;;;8.50;99.90;;;;;;4996561;28;20496;-74
2023/04/20 04:04:44;;;;;;;2.70;0.80;;;8.50;99.90;;;;;;4997155;28;20046;-75
2023/04/20 04:07:09;;;;;;;3.05;0.95;;;8.50;99.90;;;;;;4996320;28;20050;-75
2023/04/20 04:09:35;;;;;;;4.78;0.80;;;8.50;99.90;;;;;;4978892;28;20111;-75
2023/04/20 04:12:03;;;;;;;1.48;0.73;;;8.50;99.90;;;;;;4978874;28;20128;-74
2023/04/20 04:14:29;;;;;;;1.88;0.90;;;8.50;99.90;;;;;;4979163;28;20050;-75
2023/04/20 04:16:55;;;;;;;5.32;0.93;;;8.50;99.90;;;;;;4996168;28;20502;-75
2023/04/20 04:19:20;;;;;;;1.75;0.90;;;8.50;99.90;;;;;;4996238;28;20053;-75
2023/04/20 04:21:46;;;;;;;2.38;0.75;;;8.70;99.90;;;;;;4995381;28;20544;-74
2023/04/20 04:24:12;;;;;;;2.85;0.80;;;8.50;99.90;;;;;;4996358;28;20054;-75
2023/04/20 04:26:37;;;;;;;1.20;0.77;;;8.50;99.90;;;;;;4995951;28;20042;-75
2023/04/20 04:29:03;;;;;;;3.63;0.80;;;8.40;99.90;;;;;;4995915;28;20038;-76
2023/04/20 04:31:30;;;;;;;3.40;0.90;;;8.40;99.90;;;;;;4996151;28;20046;-75
2023/04/20 04:33:56;;;;;;;1.83;0.80;;;8.40;99.90;;;;;;4978716;28;20054;-75
2023/04/20 04:36:23;;;;;;;2.15;0.80;;;8.40;99.90;;;;;;4978521;28;20053;-78
2023/04/20 04:38:48;;;;;;;2.40;0.80;;;8.40;99.90;;;;;;4995639;28;20055;-75
2023/04/20 04:41:14;;;;;;;1.10;0.73;;;8.40;99.90;;;;;;4995916;28;20051;-75
2023/04/20 04:43:41;;;;;;;1.58;0.80;;;8.30;99.90;;;;;;4995615;28;20488;-75
2023/04/20 04:46:11;;;;;;;2.30;1.30;;;8.50;99.90;;;;;;4995654;28;20050;-75
2023/04/20 04:48:39;;;;;;;2.88;0.90;;;8.20;99.90;;;;;;4995809;28;20042;-75
2023/04/20 04:51:05;;;;;;;2.95;1.23;;;8.20;99.90;;;;;;4995146;28;20502;-75
2023/04/20 04:53:31;;;;;;;1.80;0.82;;;8.40;99.90;;;;;;4995452;28;20054;-75
2023/04/20 04:55:57;;;;;;;3.10;1.00;;;8.10;99.90;;;;;;4995433;28;20042;-74
2023/04/20 04:58:22;;;;;;;2.58;1.13;;;8.00;99.90;;;;;;4962030;28;20050;-74
2023/04/20 05:00:48;;;;;;;5.05;1.02;;;8.10;99.90;;;;;;4994820;28;20046;-77
2023/04/20 05:03:15;;;;;;;3.50;1.10;;;8.00;99.90;;;;;;4995872;28;20050;-75
2023/04/20 05:05:40;;;;;;;2.47;0.70;;;7.90;99.90;;;;;;4995246;28;20060;-75
2023/04/20 05:08:06;;;;;;;2.85;1.00;;;8.10;99.90;;;;;;4994854;28;20038;-75
2023/04/20 05:10:32;;;;;;;4.50;0.90;;;7.90;99.90;;;;;;4977919;28;20061;-75
2023/04/20 05:12:59;;;;;;;4.80;1.00;;;7.80;99.90;;;;;;4995891;28;20050;-75
2023/04/20 05:15:25;;;;;;;5.47;1.42;;;7.80;99.90;;;;;;4995021;28;20057;-75
2023/04/20 05:17:51;;;;;;;1.40;0.90;;;7.80;99.90;;;;;;4994948;28;20034;-74
2023/04/20 05:20:17;;;;;;;4.45;1.15;;;7.70;99.90;;;;;;4994746;28;20058;-74
2023/04/20 05:22:43;;;;;;;1.77;0.90;;;7.70;99.90;;;;;;4977581;28;20051;-73
2023/04/20 05:25:10;;;;;;;2.67;0.90;;;7.70;99.90;;;;;;4977938;28;20055;-75
2023/04/20 05:27:36;;;;;;;2.55;0.90;;;7.70;99.90;;;;;;4995350;28;20046;-75
2023/04/20 05:30:02;;;;;;;1.92;1.08;;;7.70;99.90;;;;;;4995124;28;20039;-74
2023/04/20 05:32:28;;;;;;;1.67;1.10;;;7.60;99.90;;;;;;4994771;28;20594;-74
2023/04/20 05:34:54;;;;;;;4.68;1.33;;;7.60;99.90;;;;;;4977603;28;20132;-74
2023/04/20 05:37:20;;;;;;;4.35;1.13;;;7.70;99.90;;;;;;4977386;28;20050;-74
2023/04/20 05:39:45;;;;;;;3.20;0.90;;;7.60;99.90;;;;;;4994708;28;20050;-74
2023/04/20 05:42:11;;;;;;;1.88;0.98;;;7.60;99.90;;;;;;4961051;28;20518;-75
2023/04/20 05:44:38;;;;;;;4.93;1.00;;;7.70;99.90;;;;;;4995157;28;20054;-75
2023/04/20 05:47:07;;;;;;;1.40;0.95;;;7.70;99.90;;;;;;4994568;28;20050;-75
2023/04/20 05:49:34;;;;;;;3.05;1.38;;;7.60;99.90;;;;;;4977755;28;20069;-75
2023/04/20 05:52:01;;;;;;;2.60;1.10;;;7.60;99.90;;;;;;4994374;28;20050;-74
2023/04/20 05:54:27;;;;;;;3.03;1.15;;;7.60;99.90;;;;;;4994422;28;20055;-74
2023/04/20 05:56:59;;;;;;;2.25;1.00;;;7.90;99.90;;;;;;4994368;28;20042;-74
2023/04/20 05:59:25;;;;;;;3.75;1.00;;;7.60;99.90;;;;;;4994315;28;20039;-74
2023/04/20 06:01:51;;;;;;;3.33;1.10;;;7.70;99.90;;;;;;4994299;28;20046;-74
2023/04/20 06:04:17;;;;;;;3.17;1.10;;;7.70;99.90;;;;;;4993941;28;20047;-74
2023/04/20 06:06:43;;;;;;;2.85;1.17;;;7.60;99.90;;;;;;4994239;28;20484;-74
2023/04/20 06:09:09;;;;;;;3.05;1.10;;;7.60;99.90;;;;;;4977072;28;20061;-74
2023/04/20 06:11:34;;;;;;;2.17;1.05;;;7.70;99.90;;;;;;4994166;28;20047;-74
2023/04/20 06:14:00;;;;;;;2.30;0.80;;;7.70;99.90;;;;;;4945088;28;20138;-73
2023/04/20 06:16:26;;;;;;;2.10;0.90;;;7.70;99.90;;;;;;4994409;28;20105;-73
2023/04/20 06:18:51;;;;;;;4.07;1.10;;;7.70;99.90;;;;;;4994572;28;20353;-73
2023/04/20 06:21:18;;;;;;;1.65;0.95;;;7.70;99.90;;;;;;4976458;28;20062;-73
2023/04/20 06:23:44;;;;;;;2.33;1.10;;;7.70;99.90;;;;;;4994002;28;20043;-74
2023/04/20 06:26:10;;;;;;;2.40;0.90;;;7.80;99.90;;;;;;4976672;28;20057;-73
2023/04/20 06:28:36;;;;;;;2.55;1.10;;;7.80;99.90;;;;;;4993989;28;20046;-73
2023/04/20 06:31:05;;;;;;;1.52;1.00;;;7.60;99.90;;;;;;4994752;28;20055;-74
2023/04/20 06:33:31;;;;;;;3.85;1.10;;;7.60;99.90;;;;;;4977110;28;20054;-74
2023/04/20 06:35:57;;;;;;;2.38;1.42;;;7.60;99.90;;;;;;4994730;28;20051;-75
2023/04/20 06:38:24;;;;;;;2.17;1.20;;;7.50;99.90;;;;;;4993824;28;20049;-78
2023/04/20 06:40:50;;;;;;;3.88;1.25;;;7.50;99.90;;;;;;4993872;28;20053;-75
2023/04/20 06:43:16;;;;;;;5.63;1.27;;;7.40;99.90;;;;;;4993957;28;20061;-75
2023/04/20 06:45:42;;;;;;;3.38;1.15;;;7.50;99.90;;;;;;4993844;28;20048;-76
2023/04/20 06:48:08;;;;;;;3.33;1.20;;;7.30;99.90;;;;;;4961164;28;20039;-75
2023/04/20 06:50:34;;;;;;;3.20;1.58;;;7.30;99.90;;;;;;4993722;28;20077;-76
2023/04/20 06:53:03;;;;;;;4.55;2.28;;;7.40;99.90;;;;;;4993736;28;20096;-76
2023/04/20 06:55:29;;;;;;;3.15;1.30;;;7.20;99.90;;;;;;4976584;28;20046;-76
2023/04/20 06:57:54;;;;;;;3.30;1.58;;;7.20;99.90;;;;;;4993670;28;20476;-75
2023/04/20 07:00:20;;;;;;;1.83;1.20;;;7.10;99.90;;;;;;4993735;28;20054;-76
2023/04/20 07:02:49;;;;;;;4.47;1.88;;;7.00;99.90;;;;;;4977264;28;20057;-76
2023/04/20 07:05:16;;;;;;;3.80;1.90;;;7.00;99.90;;;;;;4993734;28;20054;-76
2023/04/20 07:07:42;;;;;;;2.45;1.27;;;7.00;99.90;;;;;;4993670;28;20042;-76
2023/04/20 07:10:09;;;;;;;3.40;1.60;;;7.00;99.90;;;;;;4994208;28;20039;-76
2023/04/20 07:12:35;;;;;;;3.15;1.38;;;6.90;99.90;;;;;;4976281;28;20373;-75
2023/04/20 07:15:05;;;;;;;6.45;3.50;;;6.90;99.90;;;;;;4994093;28;20128;-77
2023/04/20 07:17:31;;;;;;;2.67;1.45;;;6.90;99.90;;;;;;4976393;28;20508;-75
2023/04/20 07:19:58;;;;;;;3.10;1.52;;;7.00;99.90;;;;;;4993617;28;20043;-75
2023/04/20 07:22:24;;;;;;;3.88;1.40;;;6.90;99.90;;;;;;4975745;28;20060;-75
2023/04/20 07:24:50;;;;;;;4.10;1.45;;;6.90;99.90;;;;;;4977786;28;20083;-75
2023/04/20 07:27:16;;;;;;;2.28;1.35;;;7.00;99.90;;;;;;4997162;28;20148;-74
2023/04/20 07:29:42;;;;;;;4.28;1.40;;;6.90;99.90;;;;;;4979997;28;20136;-75
2023/04/20 07:32:08;;;;;;;2.50;1.20;;;7.10;99.90;;;;;;4997106;28;20085;-75
2023/04/20 07:34:34;;;;;;;1.90;1.15;;;6.90;99.90;;;;;;4980139;28;20436;-74
2023/04/20 07:36:59;;;;;;;2.63;1.40;;;6.90;99.90;;;;;;4997599;28;20057;-74
2023/04/20 07:39:27;;;;;;;4.32;1.50;;;6.90;99.90;;;;;;4996844;28;20089;-74
2023/04/20 07:41:53;;;;;;;3.35;1.30;;;7.30;99.90;;;;;;4980341;28;20468;-75
2023/04/20 07:44:19;;;;;;;3.00;1.50;;;7.00;99.90;;;;;;4996868;28;20062;-74
2023/04/20 07:46:45;;;;;;;2.38;1.63;;;7.00;99.90;;;;;;4996830;28;20047;-73
2023/04/20 07:49:10;;;;;;;4.45;1.42;;;7.00;99.90;;;;;;4979618;28;20054;-74
2023/04/20 07:51:36;;;;;;;5.45;1.45;;;7.10;99.90;;;;;;4996681;28;20129;-74
2023/04/20 07:54:02;;;;;;;4.38;1.95;;;7.00;99.90;;;;;;4996690;28;20465;-75
2023/04/20 07:56:29;;;;;;;2.85;1.38;;;7.20;99.90;;;;;;4996633;28;20129;-75
2023/04/20 07:58:55;;;;;;;6.10;1.50;;;7.10;99.90;;;;;;4996570;28;20131;-76
2023/04/20 08:01:27;;;;;;;2.92;1.20;;;7.10;99.90;;;;;;4996536;28;20050;-75
2023/04/20 08:03:54;;;;;;;2.30;1.50;;;7.10;99.90;;;;;;4996488;28;20519;-74
2023/04/20 08:06:20;;;;;;;3.00;1.30;;;7.40;99.90;;;;;;4997024;28;20440;-75
2023/04/20 08:08:46;;;;;;;3.55;1.70;;;7.20;99.90;;;;;;4996400;28;20050;-77
2023/04/20 08:11:12;;;;;;;3.38;1.70;;;7.30;99.90;;;;;;4979446;28;20100;-75
2023/04/20 08:13:37;;;;;;;3.65;1.83;;;7.30;99.90;;;;;;4996349;28;20053;-76
2023/04/20 08:16:03;;;;;;;1.90;1.40;;;7.50;99.90;;;;;;4979128;28;20556;-76
2023/04/20 08:18:29;;;;;;;5.30;1.95;;;7.50;99.90;;;;;;4996688;28;20061;-74
2023/04/20 08:20:55;;;;;;;4.72;2.00;;;7.50;99.90;;;;;;4995796;28;20111;-76
2023/04/20 08:23:26;;;;;;;3.42;2.10;;;7.50;99.90;;;;;;4995880;28;20481;-76
2023/04/20 08:25:53;;;;;;;4.75;2.22;;;7.50;99.90;;;;;;4979845;28;20420;-75
2023/04/20 08:28:18;;;;;;;4.75;1.88;;;7.60;99.90;;;;;;4996074;28;20046;-76
2023/04/20 08:30:45;;;;;;;4.00;1.70;;;7.60;99.90;;;;;;4995651;28;20100;-75
2023/04/20 08:33:11;;;;;;;3.60;1.98;;;7.70;99.90;;;;;;4996737;28;20374;-76
2023/04/20 08:35:38;;;;;;;4.10;2.03;;;7.80;99.90;;;;;;4995327;28;20116;-76
2023/04/20 08:38:03;;;;;;;3.95;1.88;;;7.70;99.90;;;;;;4995381;28;20492;-75
2023/04/20 08:40:30;;;;;;;4.38;2.08;;;7.90;99.90;;;;;;4979214;28;20046;-77
2023/04/20 08:42:58;;;;;;;4.97;2.08;;;7.80;99.90;;;;;;4996545;28;20109;-76
2023/04/20 08:45:25;;;;;;;4.50;1.83;;;7.80;99.90;;;;;;4995710;28;20487;-75
2023/04/20 08:47:51;;;;;;;3.90;2.30;;;7.90;99.90;;;;;;4995739;28;20404;-76
2023/04/20 08:50:18;;;;;;;4.63;2.22;;;7.90;99.90;;;;;;4978680;28;20062;-76
2023/04/20 08:52:44;;;;;;;3.17;2.10;;;7.90;99.90;;;;;;4978433;28;20451;-76
2023/04/20 08:55:18;;;;;;;3.40;2.08;;;8.00;99.90;;;;;;4978209;28;20049;-76
2023/04/20 08:57:44;;;;;;;4.07;2.22;;;8.10;99.90;;;;;;4996288;28;20050;-76
2023/04/20 09:00:11;;;;;;;5.95;2.40;;;8.10;99.90;;;;;;4995698;28;20100;-76
2023/04/20 09:02:48;;;;;;;4.75;2.10;;;8.10;99.90;;;;;;4978481;28;20137;-76
2023/04/20 09:05:14;;;;;;;4.55;2.20;;;8.20;99.90;;;;;;4995443;28;20090;-76
2023/04/20 09:07:49;;;;;;;4.07;2.20;;;8.30;99.90;;;;;;4978240;28;20152;-77
2023/04/20 09:10:15;;;;;;;4.47;2.47;;;8.40;99.90;;;;;;4979437;28;20518;-75
2023/04/20 09:12:41;;;;;;;4.03;2.08;;;8.50;99.90;;;;;;4995122;28;20044;-78
2023/04/20 09:15:09;;;;;;;3.47;2.40;;;8.50;99.90;;;;;;4995202;28;20058;-75
2023/04/20 09:17:38;;;;;;;4.72;2.40;;;8.60;99.90;;;;;;4995057;28;20540;-74
2023/04/20 09:20:05;;;;;;;5.03;2.35;;;8.50;99.90;;;;;;4995018;28;20050;-74
2023/04/20 09:22:33;;;;;;;4.35;2.25;;;8.60;99.90;;;;;;4994841;28;20512;-75
2023/04/20 09:25:00;;;;;;;4.15;2.20;;;8.50;99.90;;;;;;4994858;28;20054;-75
2023/04/20 09:27:26;;;;;;;3.63;2.13;;;8.60;99.90;;;;;;4994664;28;20411;-75
2023/04/20 09:30:04;;;;;;;2.95;2.05;;;8.50;99.90;;;;;;4995261;28;20121;-76
2023/04/20 09:32:31;;;;;;;3.85;2.28;;;8.50;99.90;;;;;;4994111;28;20523;-75
2023/04/20 09:34:56;;;;;;;3.55;2.00;;;8.20;99.90;;;;;;4977068;28;20058;-76
2023/04/20 09:37:22;;;;;;;6.25;2.70;;;8.60;99.90;;;;;;4995424;28;20112;-75
2023/04/20 09:39:48;;;;;;;7.40;3.92;;;8.60;99.90;;;;;;4977373;28;20400;-76
2023/04/20 09:42:15;;;;;;;5.70;3.15;;;8.70;99.90;;;;;;4994673;28;20053;-77
2023/04/20 09:44:42;;;;;;;6.28;2.88;;;8.70;99.90;;;;;;4995325;28;20452;-76
2023/04/20 09:47:08;;;;;;;5.55;2.17;;;8.70;99.90;;;;;;4977229;28;20113;-76
2023/04/20 09:49:34;;;;;;;5.40;2.05;;;8.70;99.90;;;;;;4977462;28;20404;-76
2023/04/20 09:52:04;;;;;;;4.35;2.55;;;8.70;99.90;;;;;;4994410;28;20140;-75
2023/04/20 09:54:30;;;;;;;5.47;2.40;;;8.70;99.90;;;;;;4995184;28;20392;-75
2023/04/20 09:57:00;;;;;;;3.80;1.98;;;8.90;99.90;;;;;;4994150;28;20050;-76
2023/04/20 09:59:26;;;;;;;4.00;2.42;;;8.70;99.90;;;;;;4976749;28;20053;-78
2023/04/20 10:01:52;;;;;;;5.25;2.72;;;8.70;99.90;;;;;;4995038;28;20046;-76
2023/04/20 10:04:18;;;;;;;3.40;2.60;;;8.70;99.90;;;;;;4994324;28;20500;-76
2023/04/20 10:06:56;;;;;;;5.57;2.40;;;8.60;99.90;;;;;;4994570;28;20046;-76
2023/04/20 10:09:24;;;;;;;4.00;2.30;;;8.60;99.90;;;;;;4994110;28;20047;-75
2023/04/20 10:11:51;;;;;;;5.53;2.47;;;8.60;99.90;;;;;;4994187;28;20408;-75
2023/04/20 10:14:24;;;;;;;4.57;2.65;;;8.50;99.90;;;;;;4993711;28;20501;-77
2023/04/20 10:17:05;;;;;;;5.25;2.85;;;8.50;99.90;;;;;;4994885;28;20397;-76
2023/04/20 10:19:41;;;;;;;4.70;3.30;;;8.50;99.90;;;;;;4994003;28;20054;-76
2023/04/20 10:22:09;;;;;;;4.90;3.45;;;8.50;99.90;;;;;;4976427;28;20058;-77
2023/04/20 10:24:37;;;;;;;5.03;3.08;;;8.60;99.90;;;;;;4993891;28;20189;-76
2023/04/20 10:27:03;;;;;;;4.53;2.85;;;8.60;99.90;;;;;;4993995;28;20108;-76
2023/04/20 10:29:34;;;;;;;4.85;3.05;;;8.70;99.90;;;;;;4993955;28;20096;-76
2023/04/20 10:32:00;;;;;;;4.47;2.80;;;8.70;99.90;;;;;;4993955;28;20050;-76
2023/04/20 10:34:29;;;;;;;5.05;2.65;;;8.70;99.90;;;;;;4993856;28;20403;-76
2023/04/20 10:37:05;;;;;;;6.22;2.90;;;9.00;99.90;;;;;;4976731;28;20050;-75
2023/04/20 10:39:31;;;;;;;6.22;3.30;;;8.80;99.90;;;;;;4994247;28;20376;-75
2023/04/20 10:41:57;;;;;;;5.38;3.47;;;8.80;99.90;;;;;;4977544;28;20061;-75
2023/04/20 10:44:24;;;;;;;4.05;2.78;;;8.80;99.90;;;;;;4993748;28;20038;-76
2023/04/20 10:46:50;;;;;;;5.00;2.92;;;8.80;99.90;;;;;;4993819;28;20047;-75
2023/04/20 10:49:17;;;;;;;5.63;3.70;;;8.80;99.90;;;;;;4994321;28;20053;-76
2023/04/20 10:51:50;;;;;;;4.57;3.03;;;8.80;99.90;;;;;;4993769;28;20052;-75
2023/04/20 10:54:16;;;;;;;5.53;3.00;;;8.90;99.90;;;;;;4993894;28;20057;-77
2023/04/20 10:56:47;;;;;;;5.88;3.40;;;8.90;99.90;;;;;;4993618;28;20480;-76
2023/04/20 10:59:18;;;;;;;6.97;4.00;;;8.90;99.90;;;;;;4977389;28;20038;-76
2023/04/20 11:01:45;;;;;;;5.90;4.30;;;9.10;99.90;;;;;;4997936;28;20058;-78
2023/04/20 11:04:11;;;;;;;5.63;3.85;;;8.90;99.90;;;;;;4997437;28;20104;-79
2023/04/20 11:06:39;;;;;;;6.90;3.85;;;8.90;99.90;;;;;;4998153;28;20137;-78
2023/04/20 11:09:22;;;;;;;5.22;3.47;;;9.00;99.90;;;;;;4997398;28;20054;-78
2023/04/20 11:12:02;;;;;;;4.53;3.15;;;9.00;99.90;;;;;;4997360;28;20073;-77
2023/04/20 11:14:29;;;;;;;5.38;3.88;;;9.00;99.90;;;;;;4997318;28;20404;-79
2023/04/20 11:16:55;;;;;;;6.85;3.92;;;9.00;99.90;;;;;;4997301;28;20465;-78
2023/04/20 11:19:34;;;;;;;6.90;3.75;;;9.00;99.90;;;;;;4997188;28;20089;-78
2023/04/20 11:22:01;;;;;;;10.07;4.35;;;9.10;99.90;;;;;;4997263;28;20057;-79
2023/04/20 11:24:30;;;;;;;7.10;3.92;;;9.10;99.90;;;;;;4979706;28;20061;-79
2023/04/20 11:26:56;;;;;;;7.13;4.20;;;9.20;99.90;;;;;;4997568;28;20109;-79
2023/04/20 11:29:37;;;;;;;6.55;4.38;;;9.30;99.90;;;;;;4979784;28;20117;-78
2023/04/20 11:32:08;;;;;;;8.45;4.78;;;9.40;99.90;;;;;;4997430;28;20113;-79
2023/04/20 11:34:36;;;;;;;5.50;3.97;;;9.30;99.90;;;;;;4996981;28;20050;-79
2023/04/20 11:37:08;;;;;;;8.45;5.05;;;9.30;99.90;;;;;;4996922;28;20423;-78
2023/04/20 11:39:34;;;;;;;7.15;4.07;;;9.30;99.90;;;;;;4996876;28;20473;-80
2023/04/20 11:42:00;;;;;;;8.48;4.10;;;9.40;99.90;;;;;;4996752;28;20120;-80
2023/04/20 11:44:26;;;;;;;6.88;4.82;;;9.40;99.90;;;;;;4996445;28;20582;-76
2023/04/20 11:46:53;;;;;;;7.70;5.20;;;9.40;99.90;;;;;;4996736;28;20054;-76
2023/04/20 11:49:20;;;;;;;9.23;4.60;;;9.50;99.90;;;;;;4996734;28;20046;-77
2023/04/20 11:51:46;;;;;;;8.27;4.47;;;9.50;99.90;;;;;;4996950;28;20054;-77
2023/04/20 11:54:13;;;;;;;7.45;4.40;;;9.50;99.90;;;;;;4979492;28;20100;-77
2023/04/20 11:56:40;;;;;;;6.10;4.68;;;9.60;99.90;;;;;;4996653;28;20054;-78
2023/04/20 11:59:07;;;;;;;6.90;4.72;;;9.60;99.90;;;;;;4963125;28;20077;-76
2023/04/20 12:01:34;;;;;;;6.22;4.88;;;9.70;99.90;;;;;;4996622;28;20460;-78
2023/04/20 12:04:00;;;;;;;8.23;5.05;;;9.70;99.90;;;;;;4979132;28;20053;-77
2023/04/20 12:06:30;;;;;;;8.15;5.55;;;9.80;99.90;;;;;;4996491;28;20054;-77
2023/04/20 12:08:56;;;;;;;7.57;5.10;;;9.90;99.90;;;;;;4979196;28;20057;-76
2023/04/20 12:11:22;;;;;;;6.45;4.63;;;9.90;99.90;;;;;;4996260;28;20054;-76
2023/04/20 12:13:48;;;;;;;6.45;4.93;;;10.00;99.90;;;;;;4996401;28;20053;-77
2023/04/20 12:16:14;;;;;;;7.30;4.70;;;10.20;99.90;;;;;;4996595;28;20050;-78
2023/04/20 12:18:40;;;;;;;8.98;4.60;;;10.30;99.90;;;;;;4996157;28;20480;-78
2023/04/20 12:21:06;;;;;;;5.88;4.53;;;10.40;99.90;;;;;;4996158;28;20171;-76
2023/04/20 12:23:32;;;;;;;6.82;4.32;;;10.50;99.90;;;;;;4996840;28;20058;-77
2023/04/20 12:25:58;;;;;;;7.45;4.78;;;10.50;99.90;;;;;;4996641;28;20053;-77
2023/04/20 12:28:24;;;;;;;7.55;3.95;;;10.50;99.90;;;;;;4996967;28;20051;-77
2023/04/20 12:30:49;;;;;;;6.63;4.28;;;10.50;99.90;;;;;;4996886;28;20531;-77
2023/04/20 12:33:15;;;;;;;6.97;4.75;;;10.50;99.90;;;;;;4996063;28;20522;-77
2023/04/20 12:35:43;;;;;;;5.80;4.43;;;10.50;99.90;;;;;;4979630;28;20069;-77
2023/04/20 12:38:09;;;;;;;6.30;4.85;;;10.60;99.90;;;;;;4995880;28;20117;-78
2023/04/20 12:40:35;;;;;;;5.88;3.78;;;10.70;99.90;;;;;;4978826;28;20496;-77
2023/04/20 12:43:00;;;;;;;6.40;4.60;;;10.90;99.90;;;;;;4996426;28;20046;-77
2023/04/20 12:45:26;;;;;;;6.80;4.47;;;11.00;99.90;;;;;;4995835;28;20053;-77
2023/04/20 12:47:52;;;;;;;6.97;4.82;;;11.10;99.90;;;;;;4978460;28;20476;-77
2023/04/20 12:50:17;;;;;;;5.82;4.60;;;11.00;99.90;;;;;;4996493;28;20058;-78
2023/04/20 12:52:43;;;;;;;6.43;4.43;;;10.90;99.90;;;;;;4995548;28;20049;-78